North Aurora, Illinois
Current Conditions -  °F | °C
As of 9:52 AM on Wednesday 26 Nov 2014 (Local Time) from KARR Reporting Station
Haze Haze  
Wind Chill: 16°   Ceiling: 1200
Heat Index: 25°   Visibility: 5mi
Dew Point: 19°   Wind: 9mph
Humidity: 78%   Direction: 140°SE
Pressure: 30.15"   Gusts: NA
Location:  41.81°N, 88.32°W
Report Text: KARR 261552Z 14008KT 5SM HZ OVC012 M04/M07 A3015 RMK AO2 SLP220 T10391072
Loading
Personal Weather Stations






























Interactive Weather Map New forecast layout! Learn more

10-Day Weather Forecast

Advertisements
Track Severe Weather on mobile